sensor_id;sensor_type;location;lat;lon;timestamp;temperature;humidity
50969;DHT22;36982;51.474;7.228;2023-03-19T00:02:13;11.80;1.00
50969;DHT22;36982;51.474;7.228;2023-03-19T00:04:39;11.90;1.00
50969;DHT22;36982;51.474;7.228;2023-03-19T00:07:05;11.90;1.00
50969;DHT22;36982;51.474;7.228;2023-03-19T00:09:30;11.80;1.00
50969;DHT22;36982;51.474;7.228;2023-03-19T00:11:56;11.90;1.00
50969;DHT22;36982;51.474;7.228;2023-03-19T00:14:22;11.90;1.00
50969;DHT22;36982;51.474;7.228;2023-03-19T00:16:47;12.00;1.00
50969;DHT22;36982;51.474;7.228;2023-03-19T00:19:13;12.00;1.00
50969;DHT22;36982;51.474;7.228;2023-03-19T00:21:39;12.00;1.00
50969;DHT22;36982;51.474;7.228;2023-03-19T00:24:05;11.90;1.00
50969;DHT22;36982;51.474;7.228;2023-03-19T00:26:32;12.00;1.00
50969;DHT22;36982;51.474;7.228;2023-03-19T00:28:59;12.00;1.00
50969;DHT22;36982;51.474;7.228;2023-03-19T00:31:26;12.00;1.00
50969;DHT22;36982;51.474;7.228;2023-03-19T00:33:53;12.00;1.00
50969;DHT22;36982;51.474;7.228;2023-03-19T00:36:21;11.90;1.00
50969;DHT22;36982;51.474;7.228;2023-03-19T00:38:47;11.90;1.00
50969;DHT22;36982;51.474;7.228;2023-03-19T00:41:13;12.00;1.00
50969;DHT22;36982;51.474;7.228;2023-03-19T00:43:39;12.00;1.00
50969;DHT22;36982;51.474;7.228;2023-03-19T00:46:05;12.00;1.00
50969;DHT22;36982;51.474;7.228;2023-03-19T00:48:31;12.00;6.90
50969;DHT22;36982;51.474;7.228;2023-03-19T00:51:02;12.00;14.90
50969;DHT22;36982;51.474;7.228;2023-03-19T00:53:28;11.90;51.60
50969;DHT22;36982;51.474;7.228;2023-03-19T00:55:54;11.80;64.40
50969;DHT22;36982;51.474;7.228;2023-03-19T00:58:19;11.60;79.00
50969;DHT22;36982;51.474;7.228;2023-03-19T01:00:45;11.50;83.10
50969;DHT22;36982;51.474;7.228;2023-03-19T01:03:10;11.50;82.40
50969;DHT22;36982;51.474;7.228;2023-03-19T01:05:36;11.40;84.20
50969;DHT22;36982;51.474;7.228;2023-03-19T01:08:02;11.20;88.20
50969;DHT22;36982;51.474;7.228;2023-03-19T01:10:28;11.30;88.20
50969;DHT22;36982;51.474;7.228;2023-03-19T01:12:53;11.20;89.90
50969;DHT22;36982;51.474;7.228;2023-03-19T01:15:19;11.10;89.70
50969;DHT22;36982;51.474;7.228;2023-03-19T01:17:45;11.10;90.20
50969;DHT22;36982;51.474;7.228;2023-03-19T01:20:11;11.00;90.60
50969;DHT22;36982;51.474;7.228;2023-03-19T01:22:39;10.90;91.30
50969;DHT22;36982;51.474;7.228;2023-03-19T01:25:06;10.90;91.60
50969;DHT22;36982;51.474;7.228;2023-03-19T01:27:32;10.90;91.90
50969;DHT22;36982;51.474;7.228;2023-03-19T01:29:58;10.80;92.40
50969;DHT22;36982;51.474;7.228;2023-03-19T01:32:24;10.70;92.70
50969;DHT22;36982;51.474;7.228;2023-03-19T01:34:49;10.60;94.00
50969;DHT22;36982;51.474;7.228;2023-03-19T01:37:15;10.60;93.20
50969;DHT22;36982;51.474;7.228;2023-03-19T01:39:41;10.60;93.90
50969;DHT22;36982;51.474;7.228;2023-03-19T01:42:07;10.60;94.70
50969;DHT22;36982;51.474;7.228;2023-03-19T01:44:35;10.50;94.70
50969;DHT22;36982;51.474;7.228;2023-03-19T01:47:13;10.50;95.10
50969;DHT22;36982;51.474;7.228;2023-03-19T01:49:41;10.40;96.30
50969;DHT22;36982;51.474;7.228;2023-03-19T01:52:10;10.50;95.90
50969;DHT22;36982;51.474;7.228;2023-03-19T01:54:37;10.60;94.30
50969;DHT22;36982;51.474;7.228;2023-03-19T01:57:08;10.40;94.40
50969;DHT22;36982;51.474;7.228;2023-03-19T01:59:38;10.30;95.90
50969;DHT22;36982;51.474;7.228;2023-03-19T02:02:12;10.20;95.60
50969;DHT22;36982;51.474;7.228;2023-03-19T02:04:41;10.10;98.10
50969;DHT22;36982;51.474;7.228;2023-03-19T02:07:08;10.20;97.70
50969;DHT22;36982;51.474;7.228;2023-03-19T02:09:34;10.30;96.70
50969;DHT22;36982;51.474;7.228;2023-03-19T02:12:01;10.30;96.80
50969;DHT22;36982;51.474;7.228;2023-03-19T02:14:26;10.30;96.80
50969;DHT22;36982;51.474;7.228;2023-03-19T02:16:53;10.30;96.50
50969;DHT22;36982;51.474;7.228;2023-03-19T02:19:46;10.30;96.60
50969;DHT22;36982;51.474;7.228;2023-03-19T02:22:15;10.20;97.00
50969;DHT22;36982;51.474;7.228;2023-03-19T02:24:52;10.10;98.20
50969;DHT22;36982;51.474;7.228;2023-03-19T02:27:18;10.10;97.90
50969;DHT22;36982;51.474;7.228;2023-03-19T02:29:44;10.00;98.70
50969;DHT22;36982;51.474;7.228;2023-03-19T02:32:09;10.00;99.40
50969;DHT22;36982;51.474;7.228;2023-03-19T02:34:39;10.00;99.10
50969;DHT22;36982;51.474;7.228;2023-03-19T02:37:19;9.80;99.60
50969;DHT22;36982;51.474;7.228;2023-03-19T02:40:07;10.00;98.80
50969;DHT22;36982;51.474;7.228;2023-03-19T02:42:34;10.00;97.30
50969;DHT22;36982;51.474;7.228;2023-03-19T02:45:00;9.90;97.30
50969;DHT22;36982;51.474;7.228;2023-03-19T02:47:26;10.00;97.20
50969;DHT22;36982;51.474;7.228;2023-03-19T02:49:52;10.00;97.40
50969;DHT22;36982;51.474;7.228;2023-03-19T02:52:18;10.00;96.80
50969;DHT22;36982;51.474;7.228;2023-03-19T02:54:43;10.00;96.30
50969;DHT22;36982;51.474;7.228;2023-03-19T02:57:09;9.90;96.70
50969;DHT22;36982;51.474;7.228;2023-03-19T02:59:35;10.00;97.80
50969;DHT22;36982;51.474;7.228;2023-03-19T03:02:01;10.10;95.10
50969;DHT22;36982;51.474;7.228;2023-03-19T03:04:26;10.10;94.70
50969;DHT22;36982;51.474;7.228;2023-03-19T03:06:53;10.30;94.10
50969;DHT22;36982;51.474;7.228;2023-03-19T03:09:19;10.20;94.20
50969;DHT22;36982;51.474;7.228;2023-03-19T03:11:44;10.20;93.80
50969;DHT22;36982;51.474;7.228;2023-03-19T03:14:10;10.00;95.10
50969;DHT22;36982;51.474;7.228;2023-03-19T03:16:36;10.20;95.70
50969;DHT22;36982;51.474;7.228;2023-03-19T03:19:03;10.10;96.90
50969;DHT22;36982;51.474;7.228;2023-03-19T03:21:29;10.20;96.40
50969;DHT22;36982;51.474;7.228;2023-03-19T03:23:55;10.20;96.20
50969;DHT22;36982;51.474;7.228;2023-03-19T03:26:21;10.20;96.70
50969;DHT22;36982;51.474;7.228;2023-03-19T03:28:46;10.30;96.60
50969;DHT22;36982;51.474;7.228;2023-03-19T03:31:12;10.30;96.10
50969;DHT22;36982;51.474;7.228;2023-03-19T03:33:39;10.50;95.10
50969;DHT22;36982;51.474;7.228;2023-03-19T03:36:05;10.60;89.80
50969;DHT22;36982;51.474;7.228;2023-03-19T03:38:31;10.60;86.40
50969;DHT22;36982;51.474;7.228;2023-03-19T03:40:57;10.70;86.00
50969;DHT22;36982;51.474;7.228;2023-03-19T03:43:23;10.70;83.70
50969;DHT22;36982;51.474;7.228;2023-03-19T03:45:49;10.60;87.80
50969;DHT22;36982;51.474;7.228;2023-03-19T03:48:15;10.60;87.60
50969;DHT22;36982;51.474;7.228;2023-03-19T03:50:41;10.70;83.20
50969;DHT22;36982;51.474;7.228;2023-03-19T03:53:07;10.70;81.20
50969;DHT22;36982;51.474;7.228;2023-03-19T03:55:33;10.80;80.50
50969;DHT22;36982;51.474;7.228;2023-03-19T03:57:59;10.90;78.40
50969;DHT22;36982;51.474;7.228;2023-03-19T04:00:25;10.90;72.90
50969;DHT22;36982;51.474;7.228;2023-03-19T04:02:51;11.00;66.30
50969;DHT22;36982;51.474;7.228;2023-03-19T04:05:17;11.10;63.20
50969;DHT22;36982;51.474;7.228;2023-03-19T04:07:43;11.10;62.80
50969;DHT22;36982;51.474;7.228;2023-03-19T04:10:10;11.00;61.20
50969;DHT22;36982;51.474;7.228;2023-03-19T04:12:37;11.00;65.30
50969;DHT22;36982;51.474;7.228;2023-03-19T04:15:04;11.10;59.80
50969;DHT22;36982;51.474;7.228;2023-03-19T04:17:30;11.10;57.80
50969;DHT22;36982;51.474;7.228;2023-03-19T04:19:56;11.10;63.00
50969;DHT22;36982;51.474;7.228;2023-03-19T04:22:21;11.10;59.20
50969;DHT22;36982;51.474;7.228;2023-03-19T04:24:47;11.10;61.60
50969;DHT22;36982;51.474;7.228;2023-03-19T04:27:13;11.20;57.10
50969;DHT22;36982;51.474;7.228;2023-03-19T04:29:38;11.20;51.40
50969;DHT22;36982;51.474;7.228;2023-03-19T04:32:04;11.30;45.40
50969;DHT22;36982;51.474;7.228;2023-03-19T04:34:30;11.20;46.70
50969;DHT22;36982;51.474;7.228;2023-03-19T04:36:56;11.20;47.50
50969;DHT22;36982;51.474;7.228;2023-03-19T04:39:22;11.10;48.90
50969;DHT22;36982;51.474;7.228;2023-03-19T04:41:48;11.00;53.70
50969;DHT22;36982;51.474;7.228;2023-03-19T04:44:14;11.00;59.20
50969;DHT22;36982;51.474;7.228;2023-03-19T04:46:40;11.00;57.60
50969;DHT22;36982;51.474;7.228;2023-03-19T04:49:06;11.00;55.90
50969;DHT22;36982;51.474;7.228;2023-03-19T04:51:32;11.00;51.10
50969;DHT22;36982;51.474;7.228;2023-03-19T04:53:58;10.90;53.20
50969;DHT22;36982;51.474;7.228;2023-03-19T04:56:24;10.90;54.90
50969;DHT22;36982;51.474;7.228;2023-03-19T04:58:50;10.80;64.10
50969;DHT22;36982;51.474;7.228;2023-03-19T05:01:15;10.80;62.20
50969;DHT22;36982;51.474;7.228;2023-03-19T05:03:41;10.70;64.30
50969;DHT22;36982;51.474;7.228;2023-03-19T05:06:07;10.90;62.10
50969;DHT22;36982;51.474;7.228;2023-03-19T05:08:32;11.00;58.60
50969;DHT22;36982;51.474;7.228;2023-03-19T05:10:58;11.00;62.30
50969;DHT22;36982;51.474;7.228;2023-03-19T05:13:23;11.00;64.30
50969;DHT22;36982;51.474;7.228;2023-03-19T05:15:52;11.00;67.40
50969;DHT22;36982;51.474;7.228;2023-03-19T05:18:18;11.00;68.10
50969;DHT22;36982;51.474;7.228;2023-03-19T05:20:44;11.00;66.20
50969;DHT22;36982;51.474;7.228;2023-03-19T05:23:09;11.00;67.50
50969;DHT22;36982;51.474;7.228;2023-03-19T05:25:35;11.00;66.60
50969;DHT22;36982;51.474;7.228;2023-03-19T05:28:02;10.90;67.40
50969;DHT22;36982;51.474;7.228;2023-03-19T05:30:28;11.00;65.00
50969;DHT22;36982;51.474;7.228;2023-03-19T05:32:55;11.00;66.80
50969;DHT22;36982;51.474;7.228;2023-03-19T05:35:21;11.00;67.40
50969;DHT22;36982;51.474;7.228;2023-03-19T05:37:47;11.00;66.50
50969;DHT22;36982;51.474;7.228;2023-03-19T05:40:12;11.00;68.30
50969;DHT22;36982;51.474;7.228;2023-03-19T05:42:38;11.10;67.90
50969;DHT22;36982;51.474;7.228;2023-03-19T05:45:04;11.20;62.10
50969;DHT22;36982;51.474;7.228;2023-03-19T05:47:30;11.30;57.60
50969;DHT22;36982;51.474;7.228;2023-03-19T05:49:56;11.30;56.10
50969;DHT22;36982;51.474;7.228;2023-03-19T05:52:22;11.30;54.10
50969;DHT22;36982;51.474;7.228;2023-03-19T05:54:47;11.40;52.50
50969;DHT22;36982;51.474;7.228;2023-03-19T05:57:15;11.50;49.20
50969;DHT22;36982;51.474;7.228;2023-03-19T05:59:41;11.40;52.60
50969;DHT22;36982;51.474;7.228;2023-03-19T06:02:07;11.50;50.60
50969;DHT22;36982;51.474;7.228;2023-03-19T06:04:32;11.50;50.20
50969;DHT22;36982;51.474;7.228;2023-03-19T06:06:58;11.40;55.00
50969;DHT22;36982;51.474;7.228;2023-03-19T06:09:23;11.40;56.70
50969;DHT22;36982;51.474;7.228;2023-03-19T06:11:49;11.40;61.90
50969;DHT22;36982;51.474;7.228;2023-03-19T06:14:15;11.40;63.90
50969;DHT22;36982;51.474;7.228;2023-03-19T06:16:40;11.40;66.50
50969;DHT22;36982;51.474;7.228;2023-03-19T06:19:06;11.40;71.10
50969;DHT22;36982;51.474;7.228;2023-03-19T06:21:32;11.30;82.60
50969;DHT22;36982;51.474;7.228;2023-03-19T06:23:57;11.30;89.90
50969;DHT22;36982;51.474;7.228;2023-03-19T06:26:24;11.20;91.80
50969;DHT22;36982;51.474;7.228;2023-03-19T06:28:49;11.10;93.00
50969;DHT22;36982;51.474;7.228;2023-03-19T06:31:15;11.10;94.20
50969;DHT22;36982;51.474;7.228;2023-03-19T06:33:41;11.10;94.00
50969;DHT22;36982;51.474;7.228;2023-03-19T06:36:07;11.10;94.20
50969;DHT22;36982;51.474;7.228;2023-03-19T06:38:33;11.10;94.50
50969;DHT22;36982;51.474;7.228;2023-03-19T06:40:59;11.00;95.90
50969;DHT22;36982;51.474;7.228;2023-03-19T06:43:25;11.00;96.80
50969;DHT22;36982;51.474;7.228;2023-03-19T06:45:51;11.10;96.00
50969;DHT22;36982;51.474;7.228;2023-03-19T06:48:19;10.90;97.20
50969;DHT22;36982;51.474;7.228;2023-03-19T06:50:45;11.10;97.30
50969;DHT22;36982;51.474;7.228;2023-03-19T06:53:11;11.10;97.00
50969;DHT22;36982;51.474;7.228;2023-03-19T06:55:37;11.10;96.50
50969;DHT22;36982;51.474;7.228;2023-03-19T06:58:04;11.10;96.60
50969;DHT22;36982;51.474;7.228;2023-03-19T07:00:29;11.10;96.70
50969;DHT22;36982;51.474;7.228;2023-03-19T07:02:55;11.10;98.10
50969;DHT22;36982;51.474;7.228;2023-03-19T07:05:21;11.10;98.50
50969;DHT22;36982;51.474;7.228;2023-03-19T07:07:46;11.10;98.60
50969;DHT22;36982;51.474;7.228;2023-03-19T07:10:12;11.10;99.50
50969;DHT22;36982;51.474;7.228;2023-03-19T07:12:38;11.10;99.30
50969;DHT22;36982;51.474;7.228;2023-03-19T07:15:03;11.20;99.00
50969;DHT22;36982;51.474;7.228;2023-03-19T07:17:29;11.40;99.00
50969;DHT22;36982;51.474;7.228;2023-03-19T07:19:55;11.40;97.80
50969;DHT22;36982;51.474;7.228;2023-03-19T07:22:21;11.40;97.80
50969;DHT22;36982;51.474;7.228;2023-03-19T07:24:47;11.40;98.30
50969;DHT22;36982;51.474;7.228;2023-03-19T07:27:12;11.30;98.00
50969;DHT22;36982;51.474;7.228;2023-03-19T07:29:38;11.30;98.00
50969;DHT22;36982;51.474;7.228;2023-03-19T07:32:04;11.40;98.60
50969;DHT22;36982;51.474;7.228;2023-03-19T07:34:29;11.40;98.30
50969;DHT22;36982;51.474;7.228;2023-03-19T07:36:55;11.50;98.00
50969;DHT22;36982;51.474;7.228;2023-03-19T07:39:21;11.50;97.60
50969;DHT22;36982;51.474;7.228;2023-03-19T07:41:46;11.50;97.60
50969;DHT22;36982;51.474;7.228;2023-03-19T07:44:14;11.30;97.90
50969;DHT22;36982;51.474;7.228;2023-03-19T07:46:39;11.30;98.90
50969;DHT22;36982;51.474;7.228;2023-03-19T07:49:05;11.20;98.60
50969;DHT22;36982;51.474;7.228;2023-03-19T07:51:32;11.20;98.70
50969;DHT22;36982;51.474;7.228;2023-03-19T07:53:57;11.20;99.20
50969;DHT22;36982;51.474;7.228;2023-03-19T07:56:23;11.30;99.10
50969;DHT22;36982;51.474;7.228;2023-03-19T07:58:48;11.40;98.80
50969;DHT22;36982;51.474;7.228;2023-03-19T08:01:14;11.50;98.40
50969;DHT22;36982;51.474;7.228;2023-03-19T08:03:40;11.40;99.00
50969;DHT22;36982;51.474;7.228;2023-03-19T08:06:06;11.40;99.90
50969;DHT22;36982;51.474;7.228;2023-03-19T08:08:31;11.50;99.90
50969;DHT22;36982;51.474;7.228;2023-03-19T08:10:59;11.50;99.90
50969;DHT22;36982;51.474;7.228;2023-03-19T08:13:25;11.40;99.90
50969;DHT22;36982;51.474;7.228;2023-03-19T08:15:51;11.50;99.90
50969;DHT22;36982;51.474;7.228;2023-03-19T08:18:18;11.60;99.90
50969;DHT22;36982;51.474;7.228;2023-03-19T08:20:47;11.80;99.60
50969;DHT22;36982;51.474;7.228;2023-03-19T08:23:13;12.00;99.20
50969;DHT22;36982;51.474;7.228;2023-03-19T08:25:40;12.00;98.40
50969;DHT22;36982;51.474;7.228;2023-03-19T08:28:06;12.20;97.50
50969;DHT22;36982;51.474;7.228;2023-03-19T08:30:34;12.20;97.20
50969;DHT22;36982;51.474;7.228;2023-03-19T08:33:00;12.20;97.70
50969;DHT22;36982;51.474;7.228;2023-03-19T08:35:26;12.00;97.60
50969;DHT22;36982;51.474;7.228;2023-03-19T08:37:52;11.70;99.10
50969;DHT22;36982;51.474;7.228;2023-03-19T08:40:18;11.70;99.90
50969;DHT22;36982;51.474;7.228;2023-03-19T08:42:44;11.70;99.90
50969;DHT22;36982;51.474;7.228;2023-03-19T08:45:12;11.80;99.90
50969;DHT22;36982;51.474;7.228;2023-03-19T08:47:38;12.20;99.90
50969;DHT22;36982;51.474;7.228;2023-03-19T08:50:04;12.10;97.90
50969;DHT22;36982;51.474;7.228;2023-03-19T08:52:30;12.10;98.40
50969;DHT22;36982;51.474;7.228;2023-03-19T08:54:56;12.20;97.50
50969;DHT22;36982;51.474;7.228;2023-03-19T08:57:21;12.20;97.60
50969;DHT22;36982;51.474;7.228;2023-03-19T08:59:47;12.20;97.10
50969;DHT22;36982;51.474;7.228;2023-03-19T09:02:13;12.10;96.80
50969;DHT22;36982;51.474;7.228;2023-03-19T09:04:42;12.10;98.90
50969;DHT22;36982;51.474;7.228;2023-03-19T09:07:09;12.20;99.40
50969;DHT22;36982;51.474;7.228;2023-03-19T09:09:38;12.40;98.40
50969;DHT22;36982;51.474;7.228;2023-03-19T09:12:05;12.40;97.90
50969;DHT22;36982;51.474;7.228;2023-03-19T09:14:32;12.60;97.80
50969;DHT22;36982;51.474;7.228;2023-03-19T09:16:58;12.60;92.10
50969;DHT22;36982;51.474;7.228;2023-03-19T09:19:23;12.60;92.80
50969;DHT22;36982;51.474;7.228;2023-03-19T09:21:49;12.60;90.70
50969;DHT22;36982;51.474;7.228;2023-03-19T09:24:15;12.50;92.00
50969;DHT22;36982;51.474;7.228;2023-03-19T09:26:41;12.60;92.60
50969;DHT22;36982;51.474;7.228;2023-03-19T09:29:08;12.70;93.90
50969;DHT22;36982;51.474;7.228;2023-03-19T09:31:40;12.90;91.30
50969;DHT22;36982;51.474;7.228;2023-03-19T09:34:15;13.00;91.40
50969;DHT22;36982;51.474;7.228;2023-03-19T09:36:40;13.10;79.20
50969;DHT22;36982;51.474;7.228;2023-03-19T09:39:06;13.10;86.80
50969;DHT22;36982;51.474;7.228;2023-03-19T09:46:53;13.60;73.70
50969;DHT22;36982;51.474;7.228;2023-03-19T09:49:29;13.70;57.50
50969;DHT22;36982;51.474;7.228;2023-03-19T09:52:23;13.70;52.40
50969;DHT22;36982;51.474;7.228;2023-03-19T09:54:52;13.80;52.90
50969;DHT22;36982;51.474;7.228;2023-03-19T09:57:20;14.00;57.00
50969;DHT22;36982;51.474;7.228;2023-03-19T09:59:46;14.20;55.20
50969;DHT22;36982;51.474;7.228;2023-03-19T10:05:14;14.60;23.90
50969;DHT22;36982;51.474;7.228;2023-03-19T10:16:13;15.00;1.00
50969;DHT22;36982;51.474;7.228;2023-03-19T10:18:43;15.00;1.00
50969;DHT22;36982;51.474;7.228;2023-03-19T10:21:16;14.90;1.00
50969;DHT22;36982;51.474;7.228;2023-03-19T10:26:19;15.10;1.00
50969;DHT22;36982;51.474;7.228;2023-03-19T10:28:57;15.20;1.00
50969;DHT22;36982;51.474;7.228;2023-03-19T10:31:45;15.30;1.00
50969;DHT22;36982;51.474;7.228;2023-03-19T10:34:30;15.30;1.00
50969;DHT22;36982;51.474;7.228;2023-03-19T10:36:58;15.10;1.00
50969;DHT22;36982;51.474;7.228;2023-03-19T10:39:25;15.20;1.00
50969;DHT22;36982;51.474;7.228;2023-03-19T10:42:09;15.30;1.00
50969;DHT22;36982;51.474;7.228;2023-03-19T10:44:52;15.70;1.00
50969;DHT22;36982;51.474;7.228;2023-03-19T10:47:24;15.90;1.00
50969;DHT22;36982;51.474;7.228;2023-03-19T10:49:50;15.70;1.00
50969;DHT22;36982;51.474;7.228;2023-03-19T10:52:18;15.80;1.00
50969;DHT22;36982;51.474;7.228;2023-03-19T10:54:44;15.80;1.00
50969;DHT22;36982;51.474;7.228;2023-03-19T10:57:21;15.50;1.00
50969;DHT22;36982;51.474;7.228;2023-03-19T10:59:47;15.00;1.00
50969;DHT22;36982;51.474;7.228;2023-03-19T11:02:19;14.90;1.00
50969;DHT22;36982;51.474;7.228;2023-03-19T11:04:45;15.00;1.00
50969;DHT22;36982;51.474;7.228;2023-03-19T11:07:24;15.30;1.00
50969;DHT22;36982;51.474;7.228;2023-03-19T11:09:50;15.30;1.00
50969;DHT22;36982;51.474;7.228;2023-03-19T11:12:32;15.20;1.00
50969;DHT22;36982;51.474;7.228;2023-03-19T11:14:59;15.30;1.00
50969;DHT22;36982;51.474;7.228;2023-03-19T11:17:38;15.20;1.00
50969;DHT22;36982;51.474;7.228;2023-03-19T11:20:25;15.20;1.00
50969;DHT22;36982;51.474;7.228;2023-03-19T11:22:53;15.20;1.00
50969;DHT22;36982;51.474;7.228;2023-03-19T11:25:25;15.10;1.00
50969;DHT22;36982;51.474;7.228;2023-03-19T11:33:46;15.40;99.90
50969;DHT22;36982;51.474;7.228;2023-03-19T11:50:29;15.40;99.90
50969;DHT22;36982;51.474;7.228;2023-03-19T11:53:37;15.50;99.90
50969;DHT22;36982;51.474;7.228;2023-03-19T12:10:49;14.20;1.00
50969;DHT22;36982;51.474;7.228;2023-03-19T12:16:14;13.70;1.00
50969;DHT22;36982;51.474;7.228;2023-03-19T12:21:47;13.70;1.00
50969;DHT22;36982;51.474;7.228;2023-03-19T12:35:25;13.60;36.20
50969;DHT22;36982;51.474;7.228;2023-03-19T12:41:08;13.50;53.40
50969;DHT22;36982;51.474;7.228;2023-03-19T12:43:54;13.60;54.90
50969;DHT22;36982;51.474;7.228;2023-03-19T12:46:30;13.70;56.50
50969;DHT22;36982;51.474;7.228;2023-03-19T12:52:41;13.60;58.80
50969;DHT22;36982;51.474;7.228;2023-03-19T12:55:20;13.60;63.10
50969;DHT22;36982;51.474;7.228;2023-03-19T13:01:05;13.60;73.40
50969;DHT22;36982;51.474;7.228;2023-03-19T13:06:31;14.00;68.30
50969;DHT22;36982;51.474;7.228;2023-03-19T13:09:03;14.20;64.40
50969;DHT22;36982;51.474;7.228;2023-03-19T13:11:34;14.40;51.00
50969;DHT22;36982;51.474;7.228;2023-03-19T13:14:13;14.40;43.50
50969;DHT22;36982;51.474;7.228;2023-03-19T13:19:49;14.40;41.30
50969;DHT22;36982;51.474;7.228;2023-03-19T13:22:30;14.40;30.00
50969;DHT22;36982;51.474;7.228;2023-03-19T13:24:57;14.20;41.30
50969;DHT22;36982;51.474;7.228;2023-03-19T13:27:34;14.10;50.20
50969;DHT22;36982;51.474;7.228;2023-03-19T13:38:01;14.00;44.60
50969;DHT22;36982;51.474;7.228;2023-03-19T13:40:42;14.00;46.80
50969;DHT22;36982;51.474;7.228;2023-03-19T13:50:58;14.00;57.90
50969;DHT22;36982;51.474;7.228;2023-03-19T13:56:11;13.80;71.40
50969;DHT22;36982;51.474;7.228;2023-03-19T13:58:51;13.90;76.70
50969;DHT22;36982;51.474;7.228;2023-03-19T14:03:57;14.20;58.60
50969;DHT22;36982;51.474;7.228;2023-03-19T14:06:45;14.30;39.30
50969;DHT22;36982;51.474;7.228;2023-03-19T14:14:57;14.70;6.20
50969;DHT22;36982;51.474;7.228;2023-03-19T14:17:39;14.80;13.60
50969;DHT22;36982;51.474;7.228;2023-03-19T14:25:50;15.10;1.00
50969;DHT22;36982;51.474;7.228;2023-03-19T14:28:18;15.20;1.00
50969;DHT22;36982;51.474;7.228;2023-03-19T14:30:46;15.30;1.00
50969;DHT22;36982;51.474;7.228;2023-03-19T14:33:25;15.50;1.00
50969;DHT22;36982;51.474;7.228;2023-03-19T14:35:51;15.60;1.00
50969;DHT22;36982;51.474;7.228;2023-03-19T14:38:38;15.70;1.00
50969;DHT22;36982;51.474;7.228;2023-03-19T14:41:05;15.90;1.00
50969;DHT22;36982;51.474;7.228;2023-03-19T14:46:24;16.10;99.90
50969;DHT22;36982;51.474;7.228;2023-03-19T14:54:27;16.00;99.90
50969;DHT22;36982;51.474;7.228;2023-03-19T14:56:55;15.80;99.90
50969;DHT22;36982;51.474;7.228;2023-03-19T14:59:21;15.80;99.90
50969;DHT22;36982;51.474;7.228;2023-03-19T15:01:50;15.50;99.90
50969;DHT22;36982;51.474;7.228;2023-03-19T15:04:19;15.20;99.90
50969;DHT22;36982;51.474;7.228;2023-03-19T15:06:55;15.30;1.00
50969;DHT22;36982;51.474;7.228;2023-03-19T15:09:25;15.00;99.90
50969;DHT22;36982;51.474;7.228;2023-03-19T15:17:30;15.20;99.90
50969;DHT22;36982;51.474;7.228;2023-03-19T15:20:01;15.30;99.90
50969;DHT22;36982;51.474;7.228;2023-03-19T15:22:28;15.40;99.90
50969;DHT22;36982;51.474;7.228;2023-03-19T15:25:07;15.50;99.90
50969;DHT22;36982;51.474;7.228;2023-03-19T15:27:33;15.60;99.90
50969;DHT22;36982;51.474;7.228;2023-03-19T15:29:59;15.50;99.90
50969;DHT22;36982;51.474;7.228;2023-03-19T15:32:39;15.60;99.90
50969;DHT22;36982;51.474;7.228;2023-03-19T15:35:07;15.60;99.90
50969;DHT22;36982;51.474;7.228;2023-03-19T15:37:39;15.50;99.90
50969;DHT22;36982;51.474;7.228;2023-03-19T15:40:10;15.50;99.90
50969;DHT22;36982;51.474;7.228;2023-03-19T15:42:37;15.60;99.90
50969;DHT22;36982;51.474;7.228;2023-03-19T15:45:06;15.80;99.90
50969;DHT22;36982;51.474;7.228;2023-03-19T15:47:35;15.80;99.90
50969;DHT22;36982;51.474;7.228;2023-03-19T15:50:12;15.70;99.90
50969;DHT22;36982;51.474;7.228;2023-03-19T15:52:41;15.60;99.90
50969;DHT22;36982;51.474;7.228;2023-03-19T15:55:08;15.50;99.90
50969;DHT22;36982;51.474;7.228;2023-03-19T15:57:35;15.40;99.90
50969;DHT22;36982;51.474;7.228;2023-03-19T16:00:03;15.40;99.90
50969;DHT22;36982;51.474;7.228;2023-03-19T16:02:31;15.30;99.90
50969;DHT22;36982;51.474;7.228;2023-03-19T16:04:59;15.30;99.90
50969;DHT22;36982;51.474;7.228;2023-03-19T16:07:38;15.40;99.90
50969;DHT22;36982;51.474;7.228;2023-03-19T16:12:53;15.30;99.90
50969;DHT22;36982;51.474;7.228;2023-03-19T16:17:50;15.40;99.90
50969;DHT22;36982;51.474;7.228;2023-03-19T16:20:16;15.40;99.90
50969;DHT22;36982;51.474;7.228;2023-03-19T16:22:54;15.20;99.90
50969;DHT22;36982;51.474;7.228;2023-03-19T16:25:26;15.20;99.90
50969;DHT22;36982;51.474;7.228;2023-03-19T16:27:54;15.10;99.90
50969;DHT22;36982;51.474;7.228;2023-03-19T16:30:21;15.00;99.90
50969;DHT22;36982;51.474;7.228;2023-03-19T16:33:02;15.00;99.90
50969;DHT22;36982;51.474;7.228;2023-03-19T16:35:30;15.00;99.90
50969;DHT22;36982;51.474;7.228;2023-03-19T16:41:25;14.80;99.90
50969;DHT22;36982;51.474;7.228;2023-03-19T16:43:54;14.70;99.90
50969;DHT22;36982;51.474;7.228;2023-03-19T16:46:26;14.70;99.90
50969;DHT22;36982;51.474;7.228;2023-03-19T16:48:52;14.80;99.90
50969;DHT22;36982;51.474;7.228;2023-03-19T16:51:19;14.70;99.90
50969;DHT22;36982;51.474;7.228;2023-03-19T16:53:46;14.80;99.90
50969;DHT22;36982;51.474;7.228;2023-03-19T16:56:14;14.80;99.90
50969;DHT22;36982;51.474;7.228;2023-03-19T16:58:42;14.50;99.90
50969;DHT22;36982;51.474;7.228;2023-03-19T17:01:19;14.60;1.00
50969;DHT22;36982;51.474;7.228;2023-03-19T17:03:46;14.50;1.00
50969;DHT22;36982;51.474;7.228;2023-03-19T17:06:13;14.50;1.00
50969;DHT22;36982;51.474;7.228;2023-03-19T17:08:39;14.40;1.00
50969;DHT22;36982;51.474;7.228;2023-03-19T17:11:07;14.40;1.00
50969;DHT22;36982;51.474;7.228;2023-03-19T17:13:34;14.40;1.00
50969;DHT22;36982;51.474;7.228;2023-03-19T17:16:04;14.30;1.00
50969;DHT22;36982;51.474;7.228;2023-03-19T17:18:35;14.20;1.00
50969;DHT22;36982;51.474;7.228;2023-03-19T17:21:07;14.10;1.00
50969;DHT22;36982;51.474;7.228;2023-03-19T17:23:33;13.90;1.00
50969;DHT22;36982;51.474;7.228;2023-03-19T17:25:59;13.90;1.00
50969;DHT22;36982;51.474;7.228;2023-03-19T17:28:25;13.90;1.00
50969;DHT22;36982;51.474;7.228;2023-03-19T17:30:51;14.10;1.00
50969;DHT22;36982;51.474;7.228;2023-03-19T17:33:28;13.90;1.00
50969;DHT22;36982;51.474;7.228;2023-03-19T17:35:56;13.80;1.00
50969;DHT22;36982;51.474;7.228;2023-03-19T17:38:31;13.70;1.00
50969;DHT22;36982;51.474;7.228;2023-03-19T17:40:57;13.70;1.00
50969;DHT22;36982;51.474;7.228;2023-03-19T17:43:23;13.70;1.00
50969;DHT22;36982;51.474;7.228;2023-03-19T17:45:49;13.70;1.00
50969;DHT22;36982;51.474;7.228;2023-03-19T17:48:21;13.70;1.00
50969;DHT22;36982;51.474;7.228;2023-03-19T17:50:48;13.60;1.00
50969;DHT22;36982;51.474;7.228;2023-03-19T17:53:14;13.60;6.70
50969;DHT22;36982;51.474;7.228;2023-03-19T17:55:43;13.60;3.30
50969;DHT22;36982;51.474;7.228;2023-03-19T17:58:19;13.60;9.10
50969;DHT22;36982;51.474;7.228;2023-03-19T18:00:46;13.30;27.70
50969;DHT22;36982;51.474;7.228;2023-03-19T18:03:15;13.20;32.00
50969;DHT22;36982;51.474;7.228;2023-03-19T18:05:42;13.20;31.70